sensor_id;sensor_type;location;lat;lon;timestamp;P1;durP1;ratioP1;P2;durP2;ratioP2
28920;SDS011;16035;53.594;9.952;2023-12-07T00:01:57;78.57;;;27.77;;
28920;SDS011;16035;53.594;9.952;2023-12-07T00:03:57;101.27;;;35.53;;
28920;SDS011;16035;53.594;9.952;2023-12-07T00:05:57;108.87;;;38.83;;
28920;SDS011;16035;53.594;9.952;2023-12-07T00:07:58;112.00;;;37.43;;
28920;SDS011;16035;53.594;9.952;2023-12-07T00:09:58;110.60;;;36.77;;
28920;SDS011;16035;53.594;9.952;2023-12-07T00:11:58;95.93;;;36.40;;
28920;SDS011;16035;53.594;9.952;2023-12-07T00:13:59;100.77;;;36.07;;
28920;SDS011;16035;53.594;9.952;2023-12-07T00:15:59;103.20;;;37.47;;
28920;SDS011;16035;53.594;9.952;2023-12-07T00:17:59;74.20;;;26.07;;
28920;SDS011;16035;53.594;9.952;2023-12-07T00:20:00;93.70;;;36.40;;
28920;SDS011;16035;53.594;9.952;2023-12-07T00:22:00;91.70;;;33.83;;
28920;SDS011;16035;53.594;9.952;2023-12-07T00:24:01;96.27;;;35.43;;
28920;SDS011;16035;53.594;9.952;2023-12-07T00:26:01;95.30;;;35.00;;
28920;SDS011;16035;53.594;9.952;2023-12-07T00:28:01;97.23;;;36.03;;
28920;SDS011;16035;53.594;9.952;2023-12-07T00:30:02;85.07;;;34.30;;
28920;SDS011;16035;53.594;9.952;2023-12-07T00:32:03;85.23;;;32.47;;
28920;SDS011;16035;53.594;9.952;2023-12-07T00:34:04;96.57;;;35.60;;
28920;SDS011;16035;53.594;9.952;2023-12-07T00:36:05;86.82;;;33.78;;
28920;SDS011;16035;53.594;9.952;2023-12-07T00:38:06;84.38;;;33.85;;
28920;SDS011;16035;53.594;9.952;2023-12-07T00:40:08;90.20;;;34.17;;
28920;SDS011;16035;53.594;9.952;2023-12-07T00:42:09;90.70;;;34.83;;
28920;SDS011;16035;53.594;9.952;2023-12-07T00:44:09;69.07;;;25.80;;
28920;SDS011;16035;53.594;9.952;2023-12-07T00:46:10;92.10;;;33.90;;
28920;SDS011;16035;53.594;9.952;2023-12-07T00:48:11;95.30;;;36.08;;
28920;SDS011;16035;53.594;9.952;2023-12-07T00:50:12;87.83;;;34.13;;
28920;SDS011;16035;53.594;9.952;2023-12-07T00:52:14;95.65;;;35.58;;
28920;SDS011;16035;53.594;9.952;2023-12-07T00:54:14;89.80;;;34.17;;
28920;SDS011;16035;53.594;9.952;2023-12-07T00:56:15;87.80;;;31.90;;
28920;SDS011;16035;53.594;9.952;2023-12-07T00:58:15;89.87;;;32.23;;
28920;SDS011;16035;53.594;9.952;2023-12-07T01:00:15;84.17;;;31.67;;
28920;SDS011;16035;53.594;9.952;2023-12-07T01:02:16;88.87;;;32.33;;
28920;SDS011;16035;53.594;9.952;2023-12-07T01:04:16;93.53;;;32.37;;
28920;SDS011;16035;53.594;9.952;2023-12-07T01:06:17;100.10;;;35.63;;
28920;SDS011;16035;53.594;9.952;2023-12-07T01:08:18;89.93;;;32.17;;
28920;SDS011;16035;53.594;9.952;2023-12-07T01:10:18;84.00;;;32.03;;
28920;SDS011;16035;53.594;9.952;2023-12-07T01:12:19;92.00;;;35.30;;
28920;SDS011;16035;53.594;9.952;2023-12-07T01:14:20;68.55;;;26.05;;
28920;SDS011;16035;53.594;9.952;2023-12-07T01:16:20;103.23;;;35.33;;
28920;SDS011;16035;53.594;9.952;2023-12-07T01:18:20;92.27;;;34.20;;
28920;SDS011;16035;53.594;9.952;2023-12-07T01:20:20;88.30;;;33.37;;
28920;SDS011;16035;53.594;9.952;2023-12-07T01:22:21;94.53;;;34.87;;
28920;SDS011;16035;53.594;9.952;2023-12-07T01:24:21;89.27;;;33.50;;
28920;SDS011;16035;53.594;9.952;2023-12-07T01:26:21;83.57;;;31.83;;
28920;SDS011;16035;53.594;9.952;2023-12-07T01:28:22;87.13;;;32.20;;
28920;SDS011;16035;53.594;9.952;2023-12-07T01:30:22;82.53;;;32.40;;
28920;SDS011;16035;53.594;9.952;2023-12-07T01:32:23;85.37;;;33.27;;
28920;SDS011;16035;53.594;9.952;2023-12-07T01:34:23;90.30;;;34.00;;
28920;SDS011;16035;53.594;9.952;2023-12-07T01:36:23;95.17;;;32.37;;
28920;SDS011;16035;53.594;9.952;2023-12-07T01:38:24;89.73;;;32.73;;
28920;SDS011;16035;53.594;9.952;2023-12-07T01:40:24;89.13;;;33.97;;
28920;SDS011;16035;53.594;9.952;2023-12-07T01:42:25;93.07;;;33.40;;
28920;SDS011;16035;53.594;9.952;2023-12-07T01:44:25;85.60;;;30.47;;
28920;SDS011;16035;53.594;9.952;2023-12-07T01:46:27;78.38;;;30.75;;
28920;SDS011;16035;53.594;9.952;2023-12-07T01:48:28;96.60;;;37.83;;
28920;SDS011;16035;53.594;9.952;2023-12-07T01:50:28;72.87;;;26.77;;
28920;SDS011;16035;53.594;9.952;2023-12-07T01:52:29;98.23;;;33.60;;
28920;SDS011;16035;53.594;9.952;2023-12-07T01:54:30;91.90;;;34.13;;
28920;SDS011;16035;53.594;9.952;2023-12-07T01:56:31;94.07;;;33.50;;
28920;SDS011;16035;53.594;9.952;2023-12-07T01:58:31;92.60;;;32.60;;
28920;SDS011;16035;53.594;9.952;2023-12-07T02:00:32;96.57;;;32.63;;
28920;SDS011;16035;53.594;9.952;2023-12-07T02:02:33;99.10;;;33.15;;
28920;SDS011;16035;53.594;9.952;2023-12-07T02:04:34;90.57;;;33.70;;
28920;SDS011;16035;53.594;9.952;2023-12-07T02:06:36;95.93;;;33.13;;
28920;SDS011;16035;53.594;9.952;2023-12-07T02:08:37;88.73;;;31.77;;
28920;SDS011;16035;53.594;9.952;2023-12-07T02:10:41;93.72;;;33.42;;
28920;SDS011;16035;53.594;9.952;2023-12-07T02:12:41;89.80;;;31.53;;
28920;SDS011;16035;53.594;9.952;2023-12-07T02:14:42;95.80;;;34.13;;
28920;SDS011;16035;53.594;9.952;2023-12-07T02:16:47;86.00;;;31.23;;
28920;SDS011;16035;53.594;9.952;2023-12-07T02:19:02;93.55;;;32.35;;
28920;SDS011;16035;53.594;9.952;2023-12-07T02:21:16;84.80;;;31.92;;
28920;SDS011;16035;53.594;9.952;2023-12-07T02:23:22;89.85;;;33.33;;
28920;SDS011;16035;53.594;9.952;2023-12-07T02:25:24;87.70;;;32.55;;
28920;SDS011;16035;53.594;9.952;2023-12-07T02:27:33;96.50;;;33.55;;
28920;SDS011;16035;53.594;9.952;2023-12-07T02:29:37;83.25;;;31.35;;
28920;SDS011;16035;53.594;9.952;2023-12-07T02:31:38;65.27;;;22.53;;
28920;SDS011;16035;53.594;9.952;2023-12-07T02:33:38;80.33;;;30.90;;
28920;SDS011;16035;53.594;9.952;2023-12-07T02:35:39;61.13;;;22.50;;
28920;SDS011;16035;53.594;9.952;2023-12-07T02:37:41;81.88;;;28.60;;
28920;SDS011;16035;53.594;9.952;2023-12-07T02:39:44;74.30;;;29.00;;
28920;SDS011;16035;53.594;9.952;2023-12-07T02:41:45;75.35;;;28.70;;
28920;SDS011;16035;53.594;9.952;2023-12-07T02:43:48;75.97;;;28.55;;
28920;SDS011;16035;53.594;9.952;2023-12-07T02:45:49;76.57;;;30.87;;
28920;SDS011;16035;53.594;9.952;2023-12-07T02:47:49;71.27;;;30.40;;
28920;SDS011;16035;53.594;9.952;2023-12-07T02:49:49;75.40;;;28.67;;
28920;SDS011;16035;53.594;9.952;2023-12-07T02:51:49;73.10;;;30.83;;
28920;SDS011;16035;53.594;9.952;2023-12-07T02:53:50;77.57;;;29.43;;
28920;SDS011;16035;53.594;9.952;2023-12-07T02:55:50;50.60;;;21.00;;
28920;SDS011;16035;53.594;9.952;2023-12-07T02:57:50;69.13;;;27.77;;
28920;SDS011;16035;53.594;9.952;2023-12-07T02:59:51;74.57;;;30.80;;
28920;SDS011;16035;53.594;9.952;2023-12-07T03:01:51;50.17;;;19.70;;
28920;SDS011;16035;53.594;9.952;2023-12-07T03:03:52;63.43;;;26.73;;
28920;SDS011;16035;53.594;9.952;2023-12-07T03:05:52;70.00;;;26.83;;
28920;SDS011;16035;53.594;9.952;2023-12-07T03:07:52;70.20;;;28.97;;
28920;SDS011;16035;53.594;9.952;2023-12-07T03:09:52;63.10;;;28.60;;
28920;SDS011;16035;53.594;9.952;2023-12-07T03:11:53;70.60;;;27.30;;
28920;SDS011;16035;53.594;9.952;2023-12-07T03:13:53;75.20;;;27.70;;
28920;SDS011;16035;53.594;9.952;2023-12-07T03:15:53;66.10;;;27.87;;
28920;SDS011;16035;53.594;9.952;2023-12-07T03:17:54;70.50;;;28.60;;
28920;SDS011;16035;53.594;9.952;2023-12-07T03:19:54;70.73;;;30.30;;
28920;SDS011;16035;53.594;9.952;2023-12-07T03:21:54;64.53;;;29.17;;
28920;SDS011;16035;53.594;9.952;2023-12-07T03:23:55;51.90;;;21.93;;
28920;SDS011;16035;53.594;9.952;2023-12-07T03:25:55;69.93;;;28.47;;
28920;SDS011;16035;53.594;9.952;2023-12-07T03:27:55;75.33;;;29.20;;
28920;SDS011;16035;53.594;9.952;2023-12-07T03:29:56;70.80;;;28.77;;
28920;SDS011;16035;53.594;9.952;2023-12-07T03:31:56;76.57;;;31.03;;
28920;SDS011;16035;53.594;9.952;2023-12-07T03:33:57;68.73;;;29.37;;
28920;SDS011;16035;53.594;9.952;2023-12-07T03:35:58;67.10;;;29.27;;
28920;SDS011;16035;53.594;9.952;2023-12-07T03:37:58;43.57;;;19.63;;
28920;SDS011;16035;53.594;9.952;2023-12-07T03:39:58;48.93;;;19.70;;
28920;SDS011;16035;53.594;9.952;2023-12-07T03:41:59;67.03;;;28.23;;
28920;SDS011;16035;53.594;9.952;2023-12-07T03:43:59;47.07;;;21.00;;
28920;SDS011;16035;53.594;9.952;2023-12-07T03:45:59;61.13;;;26.50;;
28920;SDS011;16035;53.594;9.952;2023-12-07T03:48:04;57.20;;;26.48;;
28920;SDS011;16035;53.594;9.952;2023-12-07T03:50:04;60.63;;;28.87;;
28920;SDS011;16035;53.594;9.952;2023-12-07T03:52:06;56.95;;;26.77;;
28920;SDS011;16035;53.594;9.952;2023-12-07T03:54:06;64.22;;;26.00;;
28920;SDS011;16035;53.594;9.952;2023-12-07T03:56:07;63.10;;;26.50;;
28920;SDS011;16035;53.594;9.952;2023-12-07T03:58:07;64.50;;;28.13;;
28920;SDS011;16035;53.594;9.952;2023-12-07T04:00:10;67.90;;;27.90;;
28920;SDS011;16035;53.594;9.952;2023-12-07T04:02:11;59.22;;;27.40;;
28920;SDS011;16035;53.594;9.952;2023-12-07T04:04:11;67.53;;;27.77;;
28920;SDS011;16035;53.594;9.952;2023-12-07T04:06:12;54.03;;;24.87;;
28920;SDS011;16035;53.594;9.952;2023-12-07T04:08:12;56.67;;;26.20;;
28920;SDS011;16035;53.594;9.952;2023-12-07T04:10:12;54.20;;;25.00;;
28920;SDS011;16035;53.594;9.952;2023-12-07T04:12:13;48.30;;;25.40;;
28920;SDS011;16035;53.594;9.952;2023-12-07T04:14:13;54.27;;;24.57;;
28920;SDS011;16035;53.594;9.952;2023-12-07T04:18:15;54.63;;;24.33;;
28920;SDS011;16035;53.594;9.952;2023-12-07T04:20:16;45.45;;;20.13;;
28920;SDS011;16035;53.594;9.952;2023-12-07T04:22:16;53.60;;;24.33;;
28920;SDS011;16035;53.594;9.952;2023-12-07T04:24:17;55.53;;;25.63;;
28920;SDS011;16035;53.594;9.952;2023-12-07T04:26:17;57.77;;;25.73;;
28920;SDS011;16035;53.594;9.952;2023-12-07T04:28:17;59.50;;;24.33;;
28920;SDS011;16035;53.594;9.952;2023-12-07T04:30:18;54.37;;;26.23;;
28920;SDS011;16035;53.594;9.952;2023-12-07T04:32:18;48.43;;;24.07;;
28920;SDS011;16035;53.594;9.952;2023-12-07T04:34:18;62.07;;;26.60;;
28920;SDS011;16035;53.594;9.952;2023-12-07T04:36:19;53.97;;;25.00;;
28920;SDS011;16035;53.594;9.952;2023-12-07T04:38:19;57.70;;;25.60;;
28920;SDS011;16035;53.594;9.952;2023-12-07T04:40:19;52.33;;;24.13;;
28920;SDS011;16035;53.594;9.952;2023-12-07T04:42:20;51.50;;;24.30;;
28920;SDS011;16035;53.594;9.952;2023-12-07T04:44:20;56.40;;;26.10;;
28920;SDS011;16035;53.594;9.952;2023-12-07T04:46:20;51.10;;;24.27;;
28920;SDS011;16035;53.594;9.952;2023-12-07T04:48:21;54.27;;;24.40;;
28920;SDS011;16035;53.594;9.952;2023-12-07T04:50:21;41.10;;;19.17;;
28920;SDS011;16035;53.594;9.952;2023-12-07T04:52:21;53.30;;;22.40;;
28920;SDS011;16035;53.594;9.952;2023-12-07T04:54:22;50.27;;;24.90;;
28920;SDS011;16035;53.594;9.952;2023-12-07T04:56:22;55.57;;;26.37;;
28920;SDS011;16035;53.594;9.952;2023-12-07T04:58:23;57.28;;;26.60;;
28920;SDS011;16035;53.594;9.952;2023-12-07T05:00:23;43.13;;;22.00;;
28920;SDS011;16035;53.594;9.952;2023-12-07T05:02:24;53.83;;;25.83;;
28920;SDS011;16035;53.594;9.952;2023-12-07T05:04:24;53.23;;;25.40;;
28920;SDS011;16035;53.594;9.952;2023-12-07T05:06:24;55.23;;;25.63;;
28920;SDS011;16035;53.594;9.952;2023-12-07T05:08:25;56.57;;;25.13;;
28920;SDS011;16035;53.594;9.952;2023-12-07T05:10:25;57.50;;;25.67;;
28920;SDS011;16035;53.594;9.952;2023-12-07T05:12:25;38.37;;;17.90;;
28920;SDS011;16035;53.594;9.952;2023-12-07T05:14:26;53.00;;;23.77;;
28920;SDS011;16035;53.594;9.952;2023-12-07T05:16:26;50.53;;;22.90;;
28920;SDS011;16035;53.594;9.952;2023-12-07T05:18:27;45.40;;;18.80;;
28920;SDS011;16035;53.594;9.952;2023-12-07T05:20:27;52.47;;;25.20;;
28920;SDS011;16035;53.594;9.952;2023-12-07T05:22:29;51.20;;;24.00;;
28920;SDS011;16035;53.594;9.952;2023-12-07T05:24:29;49.13;;;23.63;;
28920;SDS011;16035;53.594;9.952;2023-12-07T05:26:32;46.03;;;23.05;;
28920;SDS011;16035;53.594;9.952;2023-12-07T05:28:33;50.20;;;23.60;;
28920;SDS011;16035;53.594;9.952;2023-12-07T05:30:33;50.67;;;23.10;;
28920;SDS011;16035;53.594;9.952;2023-12-07T05:32:33;47.33;;;21.37;;
28920;SDS011;16035;53.594;9.952;2023-12-07T05:34:34;36.13;;;16.37;;
28920;SDS011;16035;53.594;9.952;2023-12-07T05:36:35;45.40;;;22.52;;
28920;SDS011;16035;53.594;9.952;2023-12-07T05:38:36;48.20;;;22.67;;
28920;SDS011;16035;53.594;9.952;2023-12-07T05:40:36;48.80;;;22.57;;
28920;SDS011;16035;53.594;9.952;2023-12-07T05:42:36;52.50;;;22.47;;
28920;SDS011;16035;53.594;9.952;2023-12-07T05:44:36;32.03;;;15.13;;
28920;SDS011;16035;53.594;9.952;2023-12-07T05:46:37;49.60;;;21.73;;
28920;SDS011;16035;53.594;9.952;2023-12-07T05:48:38;46.97;;;20.75;;
28920;SDS011;16035;53.594;9.952;2023-12-07T05:50:39;41.70;;;20.77;;
28920;SDS011;16035;53.594;9.952;2023-12-07T05:52:39;49.17;;;20.93;;
28920;SDS011;16035;53.594;9.952;2023-12-07T05:54:40;44.77;;;20.07;;
28920;SDS011;16035;53.594;9.952;2023-12-07T05:56:42;43.72;;;22.33;;
28920;SDS011;16035;53.594;9.952;2023-12-07T05:58:43;47.58;;;21.70;;
28920;SDS011;16035;53.594;9.952;2023-12-07T06:00:43;41.87;;;21.70;;
28920;SDS011;16035;53.594;9.952;2023-12-07T06:02:46;46.97;;;21.33;;
28920;SDS011;16035;53.594;9.952;2023-12-07T06:04:47;41.20;;;21.17;;
28920;SDS011;16035;53.594;9.952;2023-12-07T06:06:47;42.53;;;20.27;;
28920;SDS011;16035;53.594;9.952;2023-12-07T06:08:48;39.03;;;18.83;;
28920;SDS011;16035;53.594;9.952;2023-12-07T06:10:48;42.57;;;21.37;;
28920;SDS011;16035;53.594;9.952;2023-12-07T06:12:48;48.70;;;21.80;;
28920;SDS011;16035;53.594;9.952;2023-12-07T06:14:49;43.20;;;20.17;;
28920;SDS011;16035;53.594;9.952;2023-12-07T06:16:50;41.67;;;21.05;;
28920;SDS011;16035;53.594;9.952;2023-12-07T06:18:51;39.87;;;20.17;;
28920;SDS011;16035;53.594;9.952;2023-12-07T06:20:51;39.23;;;20.13;;
28920;SDS011;16035;53.594;9.952;2023-12-07T06:22:51;41.27;;;19.37;;
28920;SDS011;16035;53.594;9.952;2023-12-07T06:24:52;48.63;;;23.97;;
28920;SDS011;16035;53.594;9.952;2023-12-07T06:26:52;34.93;;;16.13;;
28920;SDS011;16035;53.594;9.952;2023-12-07T06:28:52;49.00;;;23.43;;
28920;SDS011;16035;53.594;9.952;2023-12-07T06:30:53;45.07;;;21.83;;
28920;SDS011;16035;53.594;9.952;2023-12-07T06:32:53;50.27;;;24.83;;
28920;SDS011;16035;53.594;9.952;2023-12-07T06:34:54;47.27;;;24.07;;
28920;SDS011;16035;53.594;9.952;2023-12-07T06:36:54;40.70;;;20.20;;
28920;SDS011;16035;53.594;9.952;2023-12-07T06:38:54;43.93;;;21.10;;
28920;SDS011;16035;53.594;9.952;2023-12-07T06:40:55;43.83;;;20.53;;
28920;SDS011;16035;53.594;9.952;2023-12-07T06:42:56;39.70;;;21.10;;
28920;SDS011;16035;53.594;9.952;2023-12-07T06:44:56;34.77;;;16.10;;
28920;SDS011;16035;53.594;9.952;2023-12-07T06:46:56;33.87;;;17.07;;
28920;SDS011;16035;53.594;9.952;2023-12-07T06:48:57;45.83;;;23.03;;
28920;SDS011;16035;53.594;9.952;2023-12-07T06:50:57;46.00;;;22.50;;
28920;SDS011;16035;53.594;9.952;2023-12-07T06:52:59;42.93;;;22.27;;
28920;SDS011;16035;53.594;9.952;2023-12-07T06:54:59;40.97;;;20.33;;
28920;SDS011;16035;53.594;9.952;2023-12-07T06:57:00;30.80;;;16.73;;
28920;SDS011;16035;53.594;9.952;2023-12-07T06:59:00;40.60;;;21.60;;
28920;SDS011;16035;53.594;9.952;2023-12-07T07:01:01;41.17;;;22.73;;
28920;SDS011;16035;53.594;9.952;2023-12-07T07:03:01;30.13;;;15.37;;
28920;SDS011;16035;53.594;9.952;2023-12-07T07:05:02;46.20;;;22.20;;
28920;SDS011;16035;53.594;9.952;2023-12-07T07:07:02;44.93;;;22.50;;
28920;SDS011;16035;53.594;9.952;2023-12-07T07:09:03;43.30;;;21.60;;
28920;SDS011;16035;53.594;9.952;2023-12-07T07:11:09;39.45;;;21.63;;
28920;SDS011;16035;53.594;9.952;2023-12-07T07:13:12;43.67;;;21.92;;
28920;SDS011;16035;53.594;9.952;2023-12-07T07:15:14;37.95;;;20.40;;
28920;SDS011;16035;53.594;9.952;2023-12-07T07:17:15;39.67;;;20.97;;
28920;SDS011;16035;53.594;9.952;2023-12-07T07:19:15;33.80;;;17.03;;
28920;SDS011;16035;53.594;9.952;2023-12-07T07:21:16;41.70;;;20.60;;
28920;SDS011;16035;53.594;9.952;2023-12-07T07:23:17;36.27;;;18.77;;
28920;SDS011;16035;53.594;9.952;2023-12-07T07:25:17;29.07;;;15.43;;
28920;SDS011;16035;53.594;9.952;2023-12-07T07:27:19;39.05;;;19.60;;
28920;SDS011;16035;53.594;9.952;2023-12-07T07:29:19;37.70;;;19.53;;
28920;SDS011;16035;53.594;9.952;2023-12-07T07:31:19;37.63;;;20.57;;
28920;SDS011;16035;53.594;9.952;2023-12-07T07:33:20;23.37;;;14.63;;
28920;SDS011;16035;53.594;9.952;2023-12-07T07:35:20;24.03;;;13.57;;
28920;SDS011;16035;53.594;9.952;2023-12-07T07:37:20;37.60;;;20.37;;
28920;SDS011;16035;53.594;9.952;2023-12-07T07:39:21;36.00;;;19.73;;
28920;SDS011;16035;53.594;9.952;2023-12-07T07:41:21;28.20;;;15.00;;
28920;SDS011;16035;53.594;9.952;2023-12-07T07:43:21;41.50;;;21.10;;
28920;SDS011;16035;53.594;9.952;2023-12-07T07:45:22;31.93;;;15.93;;
28920;SDS011;16035;53.594;9.952;2023-12-07T07:47:22;46.23;;;21.30;;
28920;SDS011;16035;53.594;9.952;2023-12-07T07:49:23;31.97;;;15.53;;
28920;SDS011;16035;53.594;9.952;2023-12-07T07:51:23;37.30;;;19.47;;
28920;SDS011;16035;53.594;9.952;2023-12-07T07:53:24;47.80;;;24.20;;
28920;SDS011;16035;53.594;9.952;2023-12-07T07:55:24;46.57;;;23.67;;
28920;SDS011;16035;53.594;9.952;2023-12-07T07:57:24;42.33;;;22.00;;
28920;SDS011;16035;53.594;9.952;2023-12-07T07:59:24;43.27;;;22.00;;
28920;SDS011;16035;53.594;9.952;2023-12-07T08:01:25;50.83;;;24.83;;
28920;SDS011;16035;53.594;9.952;2023-12-07T08:03:26;31.70;;;16.53;;
28920;SDS011;16035;53.594;9.952;2023-12-07T08:05:26;46.87;;;22.13;;
28920;SDS011;16035;53.594;9.952;2023-12-07T08:07:26;41.57;;;21.77;;
28920;SDS011;16035;53.594;9.952;2023-12-07T08:09:27;32.17;;;17.03;;
28920;SDS011;16035;53.594;9.952;2023-12-07T08:11:27;42.10;;;21.93;;
28920;SDS011;16035;53.594;9.952;2023-12-07T08:13:27;41.33;;;22.33;;
28920;SDS011;16035;53.594;9.952;2023-12-07T08:15:28;38.90;;;20.80;;
28920;SDS011;16035;53.594;9.952;2023-12-07T08:17:28;40.80;;;20.87;;
28920;SDS011;16035;53.594;9.952;2023-12-07T08:19:29;43.33;;;22.40;;
28920;SDS011;16035;53.594;9.952;2023-12-07T08:21:29;31.47;;;18.07;;
28920;SDS011;16035;53.594;9.952;2023-12-07T08:23:30;39.23;;;21.60;;
28920;SDS011;16035;53.594;9.952;2023-12-07T08:25:30;40.67;;;20.87;;
28920;SDS011;16035;53.594;9.952;2023-12-07T08:29:32;33.77;;;19.30;;
28920;SDS011;16035;53.594;9.952;2023-12-07T08:31:33;28.07;;;15.73;;
28920;SDS011;16035;53.594;9.952;2023-12-07T08:33:33;40.13;;;21.93;;
28920;SDS011;16035;53.594;9.952;2023-12-07T08:35:38;37.80;;;21.08;;
28920;SDS011;16035;53.594;9.952;2023-12-07T08:37:39;39.38;;;22.55;;
28920;SDS011;16035;53.594;9.952;2023-12-07T08:39:39;35.53;;;19.83;;
28920;SDS011;16035;53.594;9.952;2023-12-07T08:41:39;37.97;;;20.43;;
28920;SDS011;16035;53.594;9.952;2023-12-07T08:43:40;35.37;;;19.87;;
28920;SDS011;16035;53.594;9.952;2023-12-07T08:45:40;40.03;;;21.23;;
28920;SDS011;16035;53.594;9.952;2023-12-07T08:47:41;36.03;;;20.30;;
28920;SDS011;16035;53.594;9.952;2023-12-07T08:49:41;40.63;;;19.05;;
28920;SDS011;16035;53.594;9.952;2023-12-07T08:51:42;44.03;;;22.00;;
28920;SDS011;16035;53.594;9.952;2023-12-07T08:53:42;40.70;;;21.43;;
28920;SDS011;16035;53.594;9.952;2023-12-07T08:55:43;36.40;;;20.20;;
28920;SDS011;16035;53.594;9.952;2023-12-07T08:57:43;43.53;;;21.87;;
28920;SDS011;16035;53.594;9.952;2023-12-07T08:59:43;37.17;;;19.50;;
28920;SDS011;16035;53.594;9.952;2023-12-07T09:01:44;40.73;;;21.27;;
28920;SDS011;16035;53.594;9.952;2023-12-07T09:03:44;38.37;;;21.23;;
28920;SDS011;16035;53.594;9.952;2023-12-07T09:05:44;38.70;;;21.00;;
28920;SDS011;16035;53.594;9.952;2023-12-07T09:07:45;45.70;;;22.20;;
28920;SDS011;16035;53.594;9.952;2023-12-07T09:09:45;41.23;;;21.47;;
28920;SDS011;16035;53.594;9.952;2023-12-07T09:11:47;44.78;;;23.00;;
28920;SDS011;16035;53.594;9.952;2023-12-07T09:13:47;38.33;;;20.33;;
28920;SDS011;16035;53.594;9.952;2023-12-07T09:15:48;30.10;;;16.07;;
28920;SDS011;16035;53.594;9.952;2023-12-07T09:17:48;30.77;;;16.97;;
28920;SDS011;16035;53.594;9.952;2023-12-07T09:19:48;33.63;;;19.37;;
28920;SDS011;16035;53.594;9.952;2023-12-07T09:21:49;41.20;;;21.83;;
28920;SDS011;16035;53.594;9.952;2023-12-07T09:23:49;40.37;;;20.83;;
28920;SDS011;16035;53.594;9.952;2023-12-07T09:25:49;43.23;;;21.90;;
28920;SDS011;16035;53.594;9.952;2023-12-07T09:27:50;43.40;;;23.63;;
28920;SDS011;16035;53.594;9.952;2023-12-07T09:29:51;50.67;;;24.38;;
28920;SDS011;16035;53.594;9.952;2023-12-07T09:31:51;46.20;;;24.43;;
28920;SDS011;16035;53.594;9.952;2023-12-07T09:33:52;45.57;;;25.03;;
28920;SDS011;16035;53.594;9.952;2023-12-07T09:37:53;37.30;;;20.15;;
28920;SDS011;16035;53.594;9.952;2023-12-07T09:39:54;46.60;;;21.83;;
28920;SDS011;16035;53.594;9.952;2023-12-07T09:41:54;41.53;;;23.13;;
28920;SDS011;16035;53.594;9.952;2023-12-07T09:43:55;33.10;;;17.83;;
28920;SDS011;16035;53.594;9.952;2023-12-07T09:45:55;42.33;;;23.07;;
28920;SDS011;16035;53.594;9.952;2023-12-07T09:47:58;46.92;;;24.42;;
28920;SDS011;16035;53.594;9.952;2023-12-07T09:52:00;49.00;;;24.00;;
28920;SDS011;16035;53.594;9.952;2023-12-07T09:54:02;45.92;;;24.27;;
28920;SDS011;16035;53.594;9.952;2023-12-07T09:56:05;50.60;;;26.52;;
28920;SDS011;16035;53.594;9.952;2023-12-07T09:58:06;53.13;;;27.38;;
28920;SDS011;16035;53.594;9.952;2023-12-07T10:00:07;58.10;;;28.73;;
28920;SDS011;16035;53.594;9.952;2023-12-07T10:02:10;58.55;;;27.73;;
28920;SDS011;16035;53.594;9.952;2023-12-07T10:04:20;56.10;;;27.93;;
28920;SDS011;16035;53.594;9.952;2023-12-07T10:06:26;59.60;;;28.63;;
28920;SDS011;16035;53.594;9.952;2023-12-07T10:08:29;57.77;;;27.73;;
28920;SDS011;16035;53.594;9.952;2023-12-07T10:10:31;51.83;;;25.80;;
28920;SDS011;16035;53.594;9.952;2023-12-07T10:12:32;51.87;;;26.07;;
28920;SDS011;16035;53.594;9.952;2023-12-07T10:14:34;51.55;;;26.38;;
28920;SDS011;16035;53.594;9.952;2023-12-07T10:16:34;59.17;;;28.20;;
28920;SDS011;16035;53.594;9.952;2023-12-07T10:18:35;56.50;;;25.70;;
28920;SDS011;16035;53.594;9.952;2023-12-07T10:20:36;40.63;;;19.83;;
28920;SDS011;16035;53.594;9.952;2023-12-07T10:22:45;57.50;;;26.92;;
28920;SDS011;16035;53.594;9.952;2023-12-07T10:24:46;55.35;;;25.75;;
28920;SDS011;16035;53.594;9.952;2023-12-07T10:26:48;51.88;;;24.77;;
28920;SDS011;16035;53.594;9.952;2023-12-07T10:30:53;49.90;;;25.17;;
28920;SDS011;16035;53.594;9.952;2023-12-07T10:32:53;46.90;;;24.50;;
28920;SDS011;16035;53.594;9.952;2023-12-07T10:34:53;48.00;;;25.77;;
28920;SDS011;16035;53.594;9.952;2023-12-07T10:36:56;50.30;;;25.30;;
28920;SDS011;16035;53.594;9.952;2023-12-07T10:38:58;44.90;;;23.38;;
28920;SDS011;16035;53.594;9.952;2023-12-07T10:41:04;47.03;;;25.47;;
28920;SDS011;16035;53.594;9.952;2023-12-07T10:43:08;45.28;;;23.77;;
28920;SDS011;16035;53.594;9.952;2023-12-07T10:45:09;33.22;;;17.48;;
28920;SDS011;16035;53.594;9.952;2023-12-07T10:47:14;39.40;;;21.98;;
28920;SDS011;16035;53.594;9.952;2023-12-07T10:49:17;43.83;;;22.85;;
28920;SDS011;16035;53.594;9.952;2023-12-07T10:51:44;41.72;;;22.35;;
28920;SDS011;16035;53.594;9.952;2023-12-07T10:53:45;40.22;;;21.25;;
28920;SDS011;16035;53.594;9.952;2023-12-07T10:55:59;40.00;;;20.75;;
28920;SDS011;16035;53.594;9.952;2023-12-07T10:58:01;40.95;;;21.98;;
28920;SDS011;16035;53.594;9.952;2023-12-07T11:00:02;41.15;;;22.42;;
28920;SDS011;16035;53.594;9.952;2023-12-07T11:02:03;38.03;;;20.75;;
28920;SDS011;16035;53.594;9.952;2023-12-07T11:04:06;40.05;;;22.55;;
28920;SDS011;16035;53.594;9.952;2023-12-07T11:06:07;39.80;;;21.60;;
28920;SDS011;16035;53.594;9.952;2023-12-07T11:08:09;38.83;;;22.13;;
28920;SDS011;16035;53.594;9.952;2023-12-07T11:10:21;40.08;;;22.20;;
28920;SDS011;16035;53.594;9.952;2023-12-07T11:15:16;42.58;;;22.83;;
28920;SDS011;16035;53.594;9.952;2023-12-07T11:17:17;41.30;;;23.35;;
28920;SDS011;16035;53.594;9.952;2023-12-07T11:21:33;44.17;;;22.10;;
28920;SDS011;16035;53.594;9.952;2023-12-07T11:23:34;42.80;;;22.50;;
28920;SDS011;16035;53.594;9.952;2023-12-07T11:25:34;43.17;;;23.07;;
28920;SDS011;16035;53.594;9.952;2023-12-07T11:27:34;39.13;;;22.40;;
28920;SDS011;16035;53.594;9.952;2023-12-07T11:29:35;37.50;;;21.97;;
28920;SDS011;16035;53.594;9.952;2023-12-07T11:31:36;44.10;;;21.97;;
28920;SDS011;16035;53.594;9.952;2023-12-07T11:33:37;37.38;;;20.98;;
28920;SDS011;16035;53.594;9.952;2023-12-07T11:40:06;35.70;;;19.90;;
28920;SDS011;16035;53.594;9.952;2023-12-07T11:42:08;38.90;;;21.58;;
28920;SDS011;16035;53.594;9.952;2023-12-07T11:44:11;38.03;;;20.08;;
28920;SDS011;16035;53.594;9.952;2023-12-07T11:46:12;39.25;;;20.45;;
28920;SDS011;16035;53.594;9.952;2023-12-07T11:48:14;35.38;;;19.90;;
28920;SDS011;16035;53.594;9.952;2023-12-07T11:50:18;36.83;;;20.80;;
28920;SDS011;16035;53.594;9.952;2023-12-07T11:52:19;38.77;;;19.70;;
28920;SDS011;16035;53.594;9.952;2023-12-07T11:54:21;39.67;;;20.30;;
28920;SDS011;16035;53.594;9.952;2023-12-07T11:56:22;36.97;;;20.98;;
28920;SDS011;16035;53.594;9.952;2023-12-07T11:58:29;33.83;;;19.57;;
28920;SDS011;16035;53.594;9.952;2023-12-07T12:00:30;33.17;;;18.80;;
28920;SDS011;16035;53.594;9.952;2023-12-07T12:02:33;31.67;;;18.45;;
28920;SDS011;16035;53.594;9.952;2023-12-07T12:04:36;33.00;;;17.80;;
28920;SDS011;16035;53.594;9.952;2023-12-07T12:06:38;32.67;;;18.60;;
28920;SDS011;16035;53.594;9.952;2023-12-07T12:08:40;34.83;;;19.60;;